HOURLY OBSERVATIONS


Time
(EST)
Temperature
°F
Dew Point
°F
Humidity
%
Wind
mph
Pressure
mb
Precip.
Hour
in
Precip.
Day
in
6 Hr
Max Temp
°F
6 Hr
Min Temp
°F
19 20:00 71.7 62.2 72 NNE 1 G 4 1014.2 0.05
19 19:00 74.7 63.0 67 WNW 1 G 4 1013.9 0.05 80.0 74.7
19 18:00 76.9 64.3 65 E 1 G 6 1012.9 0.05
19 17:00 78.6 63.6 60 N 2 G 7 1012.0 0.05
19 16:00 79.9 64.3 59 WSW 2 G 5 1011.9 0.05
19 15:00 79.1 64.5 61 E 2 G 6 1011.8 0.05
19 14:00 78.2 65.5 65 SSE 3 G 6 1011.7 0.05
19 13:00 78.3 65.6 65 NW 3 G 7 1011.9 0.05 78.6 64.8
19 12:00 76.7 64.9 67 WSW 3 G 7 1012.0 0.05
19 11:00 73.7 65.3 75 WSW 3 G 11 1012.1 0.05
19 10:00 67.9 65.5 92 SW 5 G 8 1012.0 0.05
19 09:00 66.3 64.5 94 SW 0 G 5 1012.0 0.05
19 08:00 65.2 63.1 93 Calm 1012.0 0.05 0.05
19 07:00 64.9 62.8 93 SSW 1 G 3 1012.0 0.00 66.5 63.7
19 06:00 63.8 61.7 93 Calm 1011.1 0.00
19 05:00 63.8 61.7 93 SW 0 G 1 1011.1 0.00
19 04:00 64.2 61.8 92 Calm 1011.1 0.00
19 03:00 65.0 62.3 91 Calm 1011.2 0.00
19 02:00 65.8 62.5 89 Calm 1011.4 0.00
19 01:00 66.5 62.8 88 Calm 1011.4 0.00 76.9 66.5
19 00:00 67.6 63.3 86 Calm 1011.6 0.00
18 23:00 69.2 63.8 83 Calm 1011.1 0.01
18 22:00 70.8 64.3 80 Calm 1010.7 0.01
18 21:00 72.1 65.2 79 Calm 1010.2 0.01
18 20:00 74.4 65.2 73 SW 0 G 2 1009.9 0.01
18 19:00 76.9 65.1 67 WSW 1 G 5 1009.4 0.01 81.0 76.9
18 18:00 79.1 65.9 64 WSW 2 G 4 1009.0 0.01
18 17:00 80.4 66.7 63 WSW 3 G 12 1008.5 0.01
18 16:00 80.7 67.0 63 SW 4 G 11 1008.4 0.01
18 15:00 79.7 65.5 62 WSW 3 G 14 1008.5 0.01
18 14:00 79.9 66.6 64 W 3 G 9 1008.5 0.01
18 13:00 80.7 65.5 60 WSW 3 G 13 1008.4 0.01 80.7 72.4
18 12:00 79.8 66.6 64 W 4 G 13 1008.3 0.01
18 11:00 78.6 66.7 67 WSW 4 G 9 1008.4 0.01
18 10:00 77.2 67.9 73 WSW 3 G 12 1008.6 0.01
18 09:00 76.2 69.2 79 W 2 G 11 1008.3 0.01
18 08:00 74.1 70.7 89 SW 4 G 12 1008.2 0.00
18 07:00 72.4 70.3 93 SW 1 G 5 1008.2 0.00 72.4 71.9
18 06:00 72.3 70.5 94 SW 2 G 7 1008.4 0.00
18 05:00 72.3 70.8 95 SW 1 G 9 1007.9 0.00
18 04:00 71.9 70.4 95 SW 1 G 7 1007.7 0.00
18 03:00 72.0 70.2 94 SSW 1 G 6 1007.5 0.00
18 02:00 72.0 70.2 94 SW 1 G 5 1007.9 0.00
18 01:00 72.4 70.6 94 SW 1 G 7 1008.2 0.00 75.7 72.4
18 00:00 73.0 70.9 93 SW 3 G 10 1008.6 0.16
17 23:00 73.9 71.4 92 WSW 1 G 7 1008.6 0.16
17 22:00 74.7 71.9 91 SW 1 G 8 1008.6 0.16
17 21:00 75.4 72.6 91 SSW 2 G 10 1008.6 0.16
17 20:00 75.5 72.7 91 SSW 2 G 11 1008.1 0.16
17 19:00 75.7 73.5 93 SSW 3 G 9 1007.6 0.16 85.2 75.7
17 18:00 75.8 73.3 92 SW 4 G 8 1007.9 0.15 0.16
17 17:00 78.2 73.3 85 WSW 0 G 4 1008.2 0.01 0.01
17 16:00 83.6 75.2 76 SSW 4 G 6 1008.3 0.00
17 15:00 83.8 74.6 74 S 4 G 10 1008.6 0.00
17 14:00 85.0 75.4 73 SW 5 G 13 1009.7 0.00
17 13:00 84.6 74.6 72 SSW 5 G 16 1010.4 0.00 84.6 70.7
17 12:00 82.1 73.8 76 SSW 7 G 17 1011.3 0.00
17 11:00 80.1 73.7 81 SSW 4 G 10 1011.8 0.00
17 10:00 78.3 72.7 83 SSW 2 G 10 1012.8 0.00
17 09:00 77.3 71.0 81 SSW 5 G 9 1013.3 0.00
17 08:00 75.5 69.6 82 S 4 G 12 1013.7 0.00
17 07:00 70.7 66.0 85 SSW 1 G 5 1013.6 0.00 71.2 69.3
17 06:00 69.4 64.0 83 SSE 1 G 4 1013.8 0.00
17 05:00 69.7 63.6 81 S 1 G 4 1013.7 0.00
17 04:00 70.4 63.2 78 S 1 G 6 1013.8 0.00
17 03:00 71.0 62.7 75 SSE 2 G 6 1013.9 0.00
17 02:00 71.0 62.3 74 SSE 2 G 5 1014.7 0.00
17 01:00 71.2 62.1 73 SE 1 G 7 1015.1 0.00 79.8 70.9
17 00:00 71.0 61.9 73 S 1 G 2 1015.7 0.00
16 23:00 71.8 61.5 70 E 0 G 4 1015.8 0.00
16 22:00 73.0 61.8 68 NE 1 G 6 1016.1 0.00
16 21:00 74.9 62.4 65 NE 2 G 4 1016.1 0.00